VLG64KE LEBL-LIPZ
Flight info
| Callsign | VLG64KE |
|---|---|
| Flight time | 1h 17m |
| Altitude | 34000 |
| Route | AGENA DCT BODEQ DCT LUMAS/N0458F360 DCT NIBIK DCT STP DCT RAPED DCT PIGOS DCT EKSID DCT NOSTA DCT NOPMU DCT BOA/N0465F320 DCT SUKOM Q125 NIMUM Z43 OTGIG |
| Aircraft | A320/M-SDE3FGHIRWY/LB1 |
Departure
| Time | 2026-05-04 09:04 |
|---|---|
| Airport | Josep Tarradellas Barcelona-El Prat Airport (LEBL) |
Arrival
| Time | 2026-05-04 10:21 |
|---|---|
| Airport | Venice Marco Polo Airport (LIPZ) |
| Time | Latitude | Longitude | Altitude | Speed | Heading |
|---|---|---|---|---|---|
| 2026-05-04 08:41 | 41.29359 | 2.07809 | 16 ft | 0 kts | 65° |
| 2026-05-04 08:54 | 41.29364 | 2.07826 | 18 ft | 2 kts | 66° |
| 2026-05-04 08:55 | 41.29379 | 2.07851 | 16 ft | 4 kts | 34° |
| 2026-05-04 08:55 | 41.29419 | 2.07850 | 16 ft | 7 kts | 3° |
| 2026-05-04 08:55 | 41.29460 | 2.07901 | 15 ft | 10 kts | 58° |
| 2026-05-04 08:55 | 41.29494 | 2.07989 | 15 ft | 12 kts | 74° |
| 2026-05-04 08:57 | 41.29313 | 2.08703 | 19 ft | 20 kts | 155° |
| 2026-05-04 09:01 | 41.29332 | 2.10267 | 13 ft | 3 kts | 150° |
| 2026-05-04 09:01 | 41.29298 | 2.10289 | 13 ft | 7 kts | 155° |
| 2026-05-04 09:01 | 41.29254 | 2.10315 | 14 ft | 5 kts | 157° |
| 2026-05-04 09:01 | 41.29247 | 2.10317 | 14 ft | 2 kts | 164° |
| 2026-05-04 09:02 | 41.29221 | 2.10310 | 15 ft | 4 kts | 209° |
| 2026-05-04 09:02 | 41.29205 | 2.10280 | 15 ft | 4 kts | 240° |
| 2026-05-04 09:02 | 41.29203 | 2.10276 | 16 ft | 0 kts | 242° |
| 2026-05-04 09:02 | 41.29203 | 2.10274 | 16 ft | 1 kts | 242° |
| 2026-05-04 09:03 | 41.29169 | 2.10177 | 18 ft | 38 kts | 245° |
| 2026-05-04 09:03 | 41.28957 | 2.09565 | 22 ft | 105 kts | 245° |
| 2026-05-04 09:03 | 41.28583 | 2.08467 | 21 ft | 153 kts | 246° |
| 2026-05-04 09:03 | 41.28103 | 2.07099 | 426 ft | 162 kts | 242° |
| 2026-05-04 09:04 | 41.27222 | 2.06234 | 1050 ft | 167 kts | 190° |
| 2026-05-04 09:04 | 41.26008 | 2.06163 | 1581 ft | 180 kts | 182° |
| 2026-05-04 09:04 | 41.24744 | 2.06212 | 2199 ft | 184 kts | 178° |
| 2026-05-04 09:04 | 41.23457 | 2.06347 | 2786 ft | 189 kts | 182° |
| 2026-05-04 09:05 | 41.22062 | 2.06270 | 3147 ft | 211 kts | 187° |
| 2026-05-04 09:05 | 41.20577 | 2.06106 | 3886 ft | 216 kts | 187° |
| 2026-05-04 09:05 | 41.19068 | 2.05951 | 4725 ft | 219 kts | 187° |
| 2026-05-04 09:05 | 41.17540 | 2.05821 | 5502 ft | 225 kts | 186° |
| 2026-05-04 09:06 | 41.15894 | 2.05692 | 5955 ft | 247 kts | 186° |
| 2026-05-04 09:07 | 41.03147 | 2.04993 | 11910 ft | 273 kts | 185° |
| 2026-05-04 09:08 | 41.01236 | 2.05053 | 12665 ft | 280 kts | 173° |
| 2026-05-04 09:08 | 40.99388 | 2.05981 | 13397 ft | 292 kts | 152° |
| 2026-05-04 09:08 | 40.97886 | 2.07853 | 14075 ft | 305 kts | 130° |
| 2026-05-04 09:08 | 40.96654 | 2.10164 | 14723 ft | 309 kts | 129° |
| 2026-05-04 09:09 | 40.95412 | 2.12507 | 15370 ft | 313 kts | 130° |
| 2026-05-04 09:09 | 40.94156 | 2.14869 | 16026 ft | 316 kts | 130° |
| 2026-05-04 09:09 | 40.92882 | 2.17259 | 16665 ft | 320 kts | 130° |
| 2026-05-04 09:09 | 40.91593 | 2.19674 | 17306 ft | 323 kts | 130° |
| 2026-05-04 09:10 | 40.90285 | 2.22115 | 17940 ft | 327 kts | 130° |
| 2026-05-04 09:10 | 40.89165 | 2.24772 | 18521 ft | 337 kts | 116° |
| 2026-05-04 09:10 | 40.88543 | 2.27798 | 19052 ft | 347 kts | 101° |
| 2026-05-04 09:10 | 40.88508 | 2.31011 | 19602 ft | 355 kts | 85° |
| 2026-05-04 09:11 | 40.89089 | 2.34261 | 19966 ft | 368 kts | 70° |
| 2026-05-04 09:11 | 40.90337 | 2.37302 | 20096 ft | 386 kts | 52° |
| 2026-05-04 09:11 | 40.92025 | 2.40152 | 20225 ft | 402 kts | 51° |
| 2026-05-04 09:11 | 40.93785 | 2.43113 | 20348 ft | 417 kts | 51° |
| 2026-05-04 09:12 | 40.95601 | 2.46197 | 20475 ft | 432 kts | 51° |
| 2026-05-04 09:12 | 40.97468 | 2.49393 | 20601 ft | 446 kts | 52° |
| 2026-05-04 09:14 | 41.11795 | 2.74126 | 21526 ft | 512 kts | 52° |
| 2026-05-04 09:14 | 41.13967 | 2.77881 | 21825 ft | 514 kts | 52° |
| 2026-05-04 09:14 | 41.16148 | 2.81652 | 22145 ft | 517 kts | 52° |
| 2026-05-04 09:14 | 41.18341 | 2.85449 | 22451 ft | 520 kts | 52° |
| 2026-05-04 09:15 | 41.20545 | 2.89273 | 22759 ft | 523 kts | 52° |
| 2026-05-04 09:15 | 41.22758 | 2.93117 | 23055 ft | 526 kts | 52° |
| 2026-05-04 09:15 | 41.24981 | 2.96992 | 23351 ft | 529 kts | 52° |
| 2026-05-04 09:15 | 41.27211 | 3.00887 | 23619 ft | 531 kts | 52° |
| 2026-05-04 09:17 | 41.45257 | 3.32505 | 26450 ft | 537 kts | 52° |
| 2026-05-04 09:18 | 41.47575 | 3.36408 | 26855 ft | 537 kts | 51° |
| 2026-05-04 09:18 | 41.49938 | 3.40262 | 27275 ft | 537 kts | 50° |
| 2026-05-04 09:18 | 41.52332 | 3.44089 | 27705 ft | 537 kts | 49° |
| 2026-05-04 09:18 | 41.54761 | 3.47953 | 28154 ft | 536 kts | 49° |
| 2026-05-04 09:19 | 41.57151 | 3.51776 | 28600 ft | 536 kts | 50° |
| 2026-05-04 09:19 | 41.59527 | 3.55618 | 29048 ft | 536 kts | 50° |
| 2026-05-04 09:19 | 41.61886 | 3.59478 | 29498 ft | 536 kts | 50° |
| 2026-05-04 09:19 | 41.64232 | 3.63350 | 29947 ft | 536 kts | 50° |
| 2026-05-04 09:20 | 41.66573 | 3.67226 | 30352 ft | 536 kts | 51° |
| 2026-05-04 09:20 | 41.68913 | 3.71108 | 30749 ft | 536 kts | 51° |
| 2026-05-04 09:20 | 41.71254 | 3.74982 | 31163 ft | 535 kts | 50° |
| 2026-05-04 09:20 | 41.73595 | 3.78851 | 31558 ft | 534 kts | 50° |
| 2026-05-04 09:21 | 41.75937 | 3.82717 | 31970 ft | 534 kts | 50° |
| 2026-05-04 09:21 | 41.78269 | 3.86569 | 32384 ft | 533 kts | 50° |
| 2026-05-04 09:21 | 41.80603 | 3.90426 | 32815 ft | 532 kts | 50° |
| 2026-05-04 09:21 | 41.82935 | 3.94277 | 33248 ft | 531 kts | 50° |
| 2026-05-04 09:22 | 41.85255 | 3.98117 | 33687 ft | 530 kts | 50° |
| 2026-05-04 09:22 | 41.87577 | 4.01975 | 33952 ft | 530 kts | 50° |
| 2026-05-04 09:22 | 41.92185 | 4.09673 | 33992 ft | 528 kts | 50° |
| 2026-05-04 09:23 | 41.96774 | 4.17364 | 34003 ft | 527 kts | 50° |
| 2026-05-04 09:23 | 42.01360 | 4.25046 | 34003 ft | 526 kts | 50° |
| 2026-05-04 09:25 | 42.18868 | 4.54547 | 34024 ft | 525 kts | 51° |
| 2026-05-04 09:26 | 42.23405 | 4.62236 | 34021 ft | 523 kts | 51° |
| 2026-05-04 09:26 | 42.27934 | 4.69922 | 34030 ft | 523 kts | 51° |
| 2026-05-04 09:27 | 42.32448 | 4.77612 | 34025 ft | 522 kts | 51° |
| 2026-05-04 09:27 | 42.36954 | 4.85301 | 34028 ft | 521 kts | 51° |
| 2026-05-04 09:28 | 42.41445 | 4.92999 | 34029 ft | 521 kts | 51° |
| 2026-05-04 09:28 | 42.45924 | 5.00705 | 34021 ft | 521 kts | 51° |
| 2026-05-04 09:29 | 42.50398 | 5.08420 | 34027 ft | 520 kts | 51° |
| 2026-05-04 09:29 | 42.54873 | 5.16129 | 34039 ft | 520 kts | 51° |
| 2026-05-04 09:30 | 42.59336 | 5.23854 | 34053 ft | 520 kts | 51° |
| 2026-05-04 09:30 | 42.63790 | 5.31582 | 34056 ft | 520 kts | 51° |
| 2026-05-04 09:31 | 42.68206 | 5.39426 | 34056 ft | 519 kts | 56° |
| 2026-05-04 09:31 | 42.71997 | 5.47771 | 34039 ft | 518 kts | 58° |
| 2026-05-04 09:32 | 42.75771 | 5.56115 | 34056 ft | 518 kts | 58° |
| 2026-05-04 09:34 | 42.90790 | 5.89546 | 34084 ft | 516 kts | 58° |
| 2026-05-04 09:34 | 42.94523 | 5.97915 | 34090 ft | 516 kts | 58° |
| 2026-05-04 09:35 | 42.98250 | 6.06278 | 34091 ft | 515 kts | 58° |
| 2026-05-04 09:35 | 43.01957 | 6.14645 | 34096 ft | 515 kts | 58° |
| 2026-05-04 09:37 | 43.16682 | 6.48115 | 34103 ft | 512 kts | 58° |
| 2026-05-04 09:38 | 43.20340 | 6.56491 | 34105 ft | 512 kts | 58° |
| 2026-05-04 09:38 | 43.24288 | 6.64592 | 34104 ft | 511 kts | 52° |
| 2026-05-04 09:39 | 43.28498 | 6.72517 | 34106 ft | 511 kts | 53° |
| 2026-05-04 09:39 | 43.32661 | 6.80413 | 34115 ft | 510 kts | 53° |
| 2026-05-04 09:40 | 43.36812 | 6.88322 | 34122 ft | 510 kts | 53° |
| 2026-05-04 09:40 | 43.40958 | 6.96233 | 34124 ft | 510 kts | 53° |
| 2026-05-04 09:42 | 43.57471 | 7.27906 | 34122 ft | 508 kts | 53° |
| 2026-05-04 09:43 | 43.61575 | 7.35840 | 34125 ft | 507 kts | 53° |
| 2026-05-04 09:43 | 43.65664 | 7.43768 | 34124 ft | 506 kts | 53° |
| 2026-05-04 09:44 | 43.69745 | 7.51687 | 34123 ft | 505 kts | 53° |
| 2026-05-04 09:46 | 43.87348 | 7.81486 | 34139 ft | 499 kts | 43° |
| 2026-05-04 09:46 | 43.89467 | 7.85285 | 34146 ft | 501 kts | 60° |
| 2026-05-04 09:46 | 43.90795 | 7.89735 | 34134 ft | 499 kts | 75° |
| 2026-05-04 09:47 | 43.92621 | 7.99093 | 34136 ft | 500 kts | 75° |
| 2026-05-04 09:49 | 44.00078 | 8.36262 | 34159 ft | 499 kts | 75° |
| 2026-05-04 09:51 | 44.06448 | 8.68758 | 34149 ft | 497 kts | 75° |
| 2026-05-04 09:51 | 44.08251 | 8.78020 | 34155 ft | 496 kts | 75° |
| 2026-05-04 09:52 | 44.10035 | 8.87280 | 34165 ft | 495 kts | 76° |
| 2026-05-04 09:52 | 44.11812 | 8.96528 | 34167 ft | 494 kts | 76° |
| 2026-05-04 09:53 | 44.13578 | 9.05764 | 34169 ft | 494 kts | 76° |
| 2026-05-04 09:53 | 44.15333 | 9.14995 | 34167 ft | 493 kts | 76° |
| 2026-05-04 09:54 | 44.17079 | 9.24223 | 34169 ft | 492 kts | 76° |
| 2026-05-04 09:54 | 44.18817 | 9.33430 | 34169 ft | 491 kts | 76° |
| 2026-05-04 09:55 | 44.20555 | 9.42704 | 34167 ft | 491 kts | 76° |
| 2026-05-04 09:55 | 44.22271 | 9.51898 | 34171 ft | 490 kts | 76° |
| 2026-05-04 09:56 | 44.23980 | 9.61091 | 34170 ft | 489 kts | 76° |
| 2026-05-04 09:56 | 44.25677 | 9.70281 | 34173 ft | 489 kts | 76° |
| 2026-05-04 09:57 | 44.27363 | 9.79457 | 34176 ft | 488 kts | 76° |
| 2026-05-04 09:57 | 44.29042 | 9.88625 | 34174 ft | 488 kts | 76° |
| 2026-05-04 09:58 | 44.30434 | 9.96253 | 34175 ft | 488 kts | 76° |
| 2026-05-04 09:58 | 44.32095 | 10.05426 | 34182 ft | 488 kts | 76° |
| 2026-05-04 10:00 | 44.38680 | 10.42227 | 34220 ft | 486 kts | 76° |
| 2026-05-04 10:02 | 44.44332 | 10.74375 | 31875 ft | 490 kts | 77° |
| 2026-05-04 10:04 | 44.51204 | 11.06445 | 28112 ft | 485 kts | 51° |
| 2026-05-04 10:04 | 44.53527 | 11.09803 | 27579 ft | 476 kts | 42° |
| 2026-05-04 10:04 | 44.55967 | 11.12960 | 27044 ft | 467 kts | 42° |
| 2026-05-04 10:04 | 44.58344 | 11.16031 | 26478 ft | 462 kts | 42° |
| 2026-05-04 10:05 | 44.60677 | 11.19051 | 25842 ft | 448 kts | 42° |
| 2026-05-04 10:05 | 44.62917 | 11.21974 | 25235 ft | 431 kts | 43° |
| 2026-05-04 10:05 | 44.65073 | 11.24798 | 24652 ft | 417 kts | 43° |
| 2026-05-04 10:05 | 44.67158 | 11.27533 | 24076 ft | 405 kts | 43° |
| 2026-05-04 10:06 | 44.69190 | 11.30197 | 23475 ft | 394 kts | 43° |
| 2026-05-04 10:06 | 44.71168 | 11.32783 | 22809 ft | 384 kts | 43° |
| 2026-05-04 10:06 | 44.73100 | 11.35311 | 22155 ft | 375 kts | 43° |
| 2026-05-04 10:08 | 44.83887 | 11.49484 | 18513 ft | 337 kts | 44° |
| 2026-05-04 10:08 | 44.85592 | 11.51731 | 17850 ft | 334 kts | 44° |
| 2026-05-04 10:08 | 44.87279 | 11.53955 | 17199 ft | 330 kts | 44° |
| 2026-05-04 10:08 | 44.88937 | 11.56144 | 16672 ft | 323 kts | 44° |
| 2026-05-04 10:09 | 44.90564 | 11.58289 | 16163 ft | 317 kts | 44° |
| 2026-05-04 10:09 | 44.92175 | 11.60371 | 15659 ft | 312 kts | 43° |
| 2026-05-04 10:09 | 44.93772 | 11.62398 | 15237 ft | 305 kts | 43° |
| 2026-05-04 10:09 | 44.95379 | 11.64427 | 14865 ft | 306 kts | 43° |
| 2026-05-04 10:10 | 44.96967 | 11.66434 | 14504 ft | 307 kts | 43° |
| 2026-05-04 10:10 | 44.98566 | 11.68461 | 14096 ft | 310 kts | 43° |
| 2026-05-04 10:10 | 45.00175 | 11.70510 | 13660 ft | 312 kts | 43° |
| 2026-05-04 10:10 | 45.01793 | 11.72572 | 13206 ft | 312 kts | 43° |
| 2026-05-04 10:11 | 45.03382 | 11.74604 | 12761 ft | 303 kts | 43° |
| 2026-05-04 10:11 | 45.04923 | 11.76577 | 12349 ft | 295 kts | 43° |
| 2026-05-04 10:11 | 45.06423 | 11.78502 | 11941 ft | 288 kts | 43° |
| 2026-05-04 10:11 | 45.07886 | 11.80379 | 11539 ft | 281 kts | 43° |
| 2026-05-04 10:12 | 45.09320 | 11.82219 | 11142 ft | 275 kts | 42° |
| 2026-05-04 10:12 | 45.10722 | 11.84017 | 10749 ft | 270 kts | 42° |
| 2026-05-04 10:12 | 45.12106 | 11.85793 | 10362 ft | 267 kts | 42° |
| 2026-05-04 10:12 | 45.13477 | 11.87556 | 9967 ft | 266 kts | 42° |
| 2026-05-04 10:13 | 45.14837 | 11.89306 | 9553 ft | 263 kts | 42° |
| 2026-05-04 10:13 | 45.16189 | 11.91043 | 9136 ft | 261 kts | 41° |
| 2026-05-04 10:13 | 45.17493 | 11.92720 | 8744 ft | 260 kts | 42° |
| 2026-05-04 10:13 | 45.18824 | 11.94431 | 8325 ft | 257 kts | 42° |
| 2026-05-04 10:14 | 45.19983 | 11.95923 | 7964 ft | 253 kts | 42° |
| 2026-05-04 10:14 | 45.21274 | 11.97592 | 7572 ft | 249 kts | 42° |
| 2026-05-04 10:16 | 45.30020 | 12.08899 | 4719 ft | 238 kts | 42° |
| 2026-05-04 10:16 | 45.31244 | 12.10486 | 4243 ft | 237 kts | 42° |
| 2026-05-04 10:16 | 45.32460 | 12.12074 | 3802 ft | 237 kts | 41° |
| 2026-05-04 10:16 | 45.33683 | 12.13646 | 3359 ft | 237 kts | 41° |
| 2026-05-04 10:17 | 45.34908 | 12.15209 | 3030 ft | 227 kts | 41° |
| 2026-05-04 10:17 | 45.36025 | 12.16634 | 3023 ft | 203 kts | 41° |
| 2026-05-04 10:19 | 45.42778 | 12.25263 | 1782 ft | 170 kts | 42° |
| 2026-05-04 10:19 | 45.43651 | 12.26380 | 1527 ft | 168 kts | 43° |
| 2026-05-04 10:19 | 45.44515 | 12.27487 | 1316 ft | 167 kts | 43° |
| 2026-05-04 10:19 | 45.45354 | 12.28563 | 1087 ft | 154 kts | 43° |
| 2026-05-04 10:20 | 45.46122 | 12.29547 | 898 ft | 144 kts | 43° |
| 2026-05-04 10:20 | 45.46852 | 12.30483 | 716 ft | 139 kts | 43° |
| 2026-05-04 10:20 | 45.47565 | 12.31400 | 541 ft | 136 kts | 44° |
| 2026-05-04 10:20 | 45.48268 | 12.32295 | 386 ft | 135 kts | 43° |
| 2026-05-04 10:21 | 45.48962 | 12.33188 | 247 ft | 135 kts | 44° |
| 2026-05-04 10:21 | 45.49652 | 12.34074 | 32 ft | 128 kts | 44° |
| 2026-05-04 10:21 | 45.50236 | 12.34829 | 14 ft | 93 kts | 42° |
| 2026-05-04 10:21 | 45.50587 | 12.35277 | 14 ft | 42 kts | 41° |
| 2026-05-04 10:22 | 45.50939 | 12.35461 | 17 ft | 18 kts | 359° |
| 2026-05-04 10:22 | 45.50979 | 12.35391 | 18 ft | 5 kts | 279° |
| 2026-05-04 10:22 | 45.50979 | 12.35382 | 19 ft | 1 kts | 274° |
| 2026-05-04 10:23 | 45.50973 | 12.35305 | 17 ft | 12 kts | 258° |
| 2026-05-04 10:23 | 45.50936 | 12.35177 | 17 ft | 16 kts | 228° |
| 2026-05-04 10:25 | 45.50618 | 12.34290 | 16 ft | 9 kts | 267° |
| 2026-05-04 10:25 | 45.50616 | 12.34229 | 16 ft | 2 kts | 267° |
| 2026-05-04 10:25 | 45.50616 | 12.34218 | 16 ft | 0 kts | 267° |